createdAt,value
2023-04-09T00:00:25.538Z,95345.00
2023-04-09T00:01:25.507Z,95345.00
2023-04-09T00:02:25.520Z,95345.00
2023-04-09T00:03:25.636Z,95347.00
2023-04-09T00:04:25.550Z,95347.00
2023-04-09T00:05:25.518Z,95347.00
2023-04-09T00:06:25.580Z,95347.00
2023-04-09T00:07:25.582Z,95343.00
2023-04-09T00:08:25.602Z,95347.00
2023-04-09T00:09:25.616Z,95345.00
2023-04-09T00:10:25.670Z,95347.00
2023-04-09T00:11:25.625Z,95347.00
2023-04-09T00:12:25.698Z,95347.00
2023-04-09T00:13:36.086Z,95345.00
2023-04-09T00:14:26.677Z,95343.00
2023-04-09T00:15:31.042Z,95343.00
2023-04-09T00:16:26.765Z,95343.00
2023-04-09T00:17:25.634Z,95343.00
2023-04-09T00:18:25.743Z,95341.00
2023-04-09T00:19:25.573Z,95341.00
2023-04-09T00:20:25.578Z,95339.00
2023-04-09T00:21:25.596Z,95339.00
2023-04-09T00:22:25.653Z,95337.00
2023-04-09T00:23:25.610Z,95339.00
2023-04-09T00:24:25.651Z,95339.00
2023-04-09T00:25:25.561Z,95339.00
2023-04-09T00:26:25.581Z,95343.00
2023-04-09T00:27:25.525Z,95339.00
2023-04-09T00:28:25.595Z,95339.00
2023-04-09T00:29:25.586Z,95339.00
2023-04-09T00:30:25.647Z,95337.00
2023-04-09T00:31:25.574Z,95337.00
2023-04-09T00:32:25.588Z,95339.00
2023-04-09T00:33:25.537Z,95335.00
2023-04-09T00:34:25.561Z,95335.00
2023-04-09T00:35:25.537Z,95335.00
2023-04-09T00:36:27.024Z,95335.00
2023-04-09T00:37:25.580Z,95335.00
2023-04-09T00:38:25.631Z,95335.00
2023-04-09T00:39:25.591Z,95337.00
2023-04-09T00:40:25.592Z,95337.00
2023-04-09T00:41:25.685Z,95339.00
2023-04-09T00:42:25.682Z,95339.00
2023-04-09T00:43:25.638Z,95337.00
2023-04-09T00:44:25.685Z,95339.00
2023-04-09T00:45:25.717Z,95337.00
2023-04-09T00:46:25.726Z,95337.00
2023-04-09T00:47:25.725Z,95335.00
2023-04-09T00:48:25.754Z,95335.00
2023-04-09T00:49:25.753Z,95333.00
2023-04-09T00:50:25.773Z,95337.00
2023-04-09T00:51:25.800Z,95339.00
2023-04-09T00:52:25.774Z,95337.00
2023-04-09T00:53:25.816Z,95339.00
2023-04-09T00:54:25.855Z,95339.00
2023-04-09T00:55:25.827Z,95341.00
2023-04-09T00:56:25.880Z,95345.00
2023-04-09T00:57:25.884Z,95343.00
2023-04-09T00:58:25.879Z,95343.00
2023-04-09T00:59:25.906Z,95345.00
2023-04-09T01:00:25.936Z,95341.00
2023-04-09T01:01:25.976Z,95341.00
2023-04-09T01:02:26.136Z,95345.00
2023-04-09T01:03:26.150Z,95345.00
2023-04-09T01:04:26.088Z,95345.00
2023-04-09T01:05:26.041Z,95347.00
2023-04-09T01:06:26.044Z,95345.00
2023-04-09T01:07:26.099Z,95345.00
2023-04-09T01:08:26.116Z,95347.00
2023-04-09T01:09:26.097Z,95347.00
2023-04-09T01:10:26.120Z,95347.00
2023-04-09T01:11:26.134Z,95347.00
2023-04-09T01:12:26.151Z,95345.00
2023-04-09T01:13:26.149Z,95345.00
2023-04-09T01:14:26.221Z,95343.00
2023-04-09T01:15:26.158Z,95343.00
2023-04-09T01:16:26.285Z,95345.00
2023-04-09T01:17:26.182Z,95345.00
2023-04-09T01:18:26.220Z,95345.00
2023-04-09T01:19:26.242Z,95345.00
2023-04-09T01:20:26.296Z,95345.00
2023-04-09T01:21:26.302Z,95345.00
2023-04-09T01:22:26.355Z,95343.00
2023-04-09T01:23:26.321Z,95345.00
2023-04-09T01:24:26.328Z,95345.00
2023-04-09T01:25:26.374Z,95343.00
2023-04-09T01:26:26.338Z,95343.00
2023-04-09T01:27:26.448Z,95345.00
2023-04-09T01:28:26.400Z,95345.00
2023-04-09T01:29:26.391Z,95343.00
2023-04-09T01:30:26.425Z,95345.00
2023-04-09T01:31:26.437Z,95345.00
2023-04-09T01:32:26.510Z,95345.00
2023-04-09T01:33:26.512Z,95345.00
2023-04-09T01:34:26.464Z,95345.00
2023-04-09T01:35:26.508Z,95347.00
2023-04-09T01:36:26.516Z,95347.00
2023-04-09T01:37:26.493Z,95345.00
2023-04-09T01:38:26.570Z,95349.00
2023-04-09T01:39:26.568Z,95345.00
2023-04-09T01:40:26.575Z,95345.00
2023-04-09T01:41:26.590Z,95345.00
2023-04-09T01:42:26.597Z,95345.00
2023-04-09T01:43:26.666Z,95345.00
2023-04-09T01:44:26.646Z,95345.00
2023-04-09T01:45:26.634Z,95349.00
2023-04-09T01:46:26.727Z,95345.00
2023-04-09T01:47:26.676Z,95347.00
2023-04-09T01:48:26.665Z,95343.00
2023-04-09T01:49:26.741Z,95345.00
2023-04-09T01:50:26.740Z,95347.00
2023-04-09T01:51:26.752Z,95345.00
2023-04-09T01:52:26.768Z,95347.00
2023-04-09T01:53:26.787Z,95347.00
2023-04-09T01:54:26.850Z,95349.00
2023-04-09T01:55:26.842Z,95347.00
2023-04-09T01:56:26.832Z,95347.00
2023-04-09T01:57:26.857Z,95347.00
2023-04-09T01:58:26.869Z,95349.00
2023-04-09T01:59:26.916Z,95349.00
2023-04-09T02:00:26.926Z,95349.00
2023-04-09T02:01:26.898Z,95349.00
2023-04-09T02:02:27.013Z,95349.00
2023-04-09T02:03:26.996Z,95349.00
2023-04-09T02:04:26.964Z,95347.00
2023-04-09T02:05:27.040Z,95351.00
2023-04-09T02:06:27.113Z,95351.00
2023-04-09T02:07:27.036Z,95353.00
2023-04-09T02:08:27.059Z,95355.00
2023-04-09T02:09:27.086Z,95351.00
2023-04-09T02:10:27.054Z,95355.00
2023-04-09T02:11:27.051Z,95355.00
2023-04-09T02:12:27.095Z,95355.00
2023-04-09T02:13:27.147Z,95357.00
2023-04-09T02:14:27.117Z,95357.00
2023-04-09T02:15:27.128Z,95353.00
2023-04-09T02:16:27.190Z,95351.00
2023-04-09T02:17:27.208Z,95355.00
2023-04-09T02:18:27.274Z,95353.00
2023-04-09T02:19:27.204Z,95353.00
2023-04-09T02:20:27.193Z,95355.00
2023-04-09T02:21:27.228Z,95353.00
2023-04-09T02:22:27.274Z,95351.00
2023-04-09T02:23:27.344Z,95349.00
2023-04-09T02:24:27.342Z,95347.00
2023-04-09T02:25:27.303Z,95345.00
2023-04-09T02:26:27.300Z,95347.00
2023-04-09T02:27:27.328Z,95347.00
2023-04-09T02:28:27.373Z,95347.00
2023-04-09T02:29:27.380Z,95349.00
2023-04-09T02:30:27.386Z,95345.00
2023-04-09T02:31:27.415Z,95347.00
2023-04-09T02:32:27.425Z,95347.00
2023-04-09T02:33:27.456Z,95347.00
2023-04-09T02:34:27.459Z,95345.00
2023-04-09T02:35:27.472Z,95347.00
2023-04-09T02:36:27.477Z,95351.00
2023-04-09T02:37:27.483Z,95351.00
2023-04-09T02:38:27.479Z,95351.00
2023-04-09T02:39:27.489Z,95351.00
2023-04-09T02:40:27.531Z,95353.00
2023-04-09T02:41:27.559Z,95353.00
2023-04-09T02:42:27.583Z,95355.00
2023-04-09T02:43:27.626Z,95355.00
2023-04-09T02:44:27.655Z,95355.00
2023-04-09T02:45:27.661Z,95355.00
2023-04-09T02:46:27.720Z,95357.00
2023-04-09T02:47:27.688Z,95351.00
2023-04-09T02:48:27.706Z,95351.00
2023-04-09T02:49:27.719Z,95353.00
2023-04-09T02:50:29.326Z,95351.00
2023-04-09T02:51:27.773Z,95353.00
2023-04-09T02:52:27.791Z,95353.00
2023-04-09T02:53:27.794Z,95351.00
2023-04-09T02:54:27.804Z,95353.00
2023-04-09T02:55:27.860Z,95351.00
2023-04-09T02:56:27.865Z,95349.00
2023-04-09T02:57:27.883Z,95351.00
2023-04-09T02:58:27.909Z,95345.00
2023-04-09T02:59:27.943Z,95345.00
2023-04-09T03:00:27.948Z,95345.00
2023-04-09T03:01:28.011Z,95345.00
2023-04-09T03:02:28.146Z,95347.00
2023-04-09T03:03:28.163Z,95347.00
2023-04-09T03:04:28.031Z,95349.00
2023-04-09T03:05:28.037Z,95349.00
2023-04-09T03:06:28.143Z,95345.00
2023-04-09T03:07:28.093Z,95345.00
2023-04-09T03:08:28.102Z,95345.00
2023-04-09T03:09:28.112Z,95343.00
2023-04-09T03:10:28.153Z,95349.00
2023-04-09T03:11:28.177Z,95345.00
2023-04-09T03:12:28.180Z,95343.00
2023-04-09T03:13:28.238Z,95343.00
2023-04-09T03:14:28.199Z,95343.00
2023-04-09T03:15:28.262Z,95343.00
2023-04-09T03:16:28.263Z,95341.00
2023-04-09T03:17:28.323Z,95341.00
2023-04-09T03:18:28.322Z,95343.00
2023-04-09T03:19:28.397Z,95341.00
2023-04-09T03:20:28.340Z,95341.00
2023-04-09T03:21:28.404Z,95337.00
2023-04-09T03:22:28.405Z,95337.00
2023-04-09T03:23:28.418Z,95337.00
2023-04-09T03:24:28.420Z,95337.00
2023-04-09T03:25:28.446Z,95337.00
2023-04-09T03:26:28.495Z,95337.00
2023-04-09T03:27:28.495Z,95337.00
2023-04-09T03:28:28.490Z,95337.00
2023-04-09T03:29:28.514Z,95339.00
2023-04-09T03:30:28.548Z,95337.00
2023-04-09T03:31:28.624Z,95335.00
2023-04-09T03:32:28.637Z,95337.00
2023-04-09T03:33:28.611Z,95337.00
2023-04-09T03:34:28.686Z,95335.00
2023-04-09T03:35:28.695Z,95333.00
2023-04-09T03:36:28.702Z,95335.00
2023-04-09T03:37:28.774Z,95335.00
2023-04-09T03:38:28.818Z,95337.00
2023-04-09T03:39:28.785Z,95331.00
2023-04-09T03:40:28.842Z,95331.00
2023-04-09T03:41:28.800Z,95331.00
2023-04-09T03:42:28.852Z,95331.00
2023-04-09T03:43:28.860Z,95331.00
2023-04-09T03:44:28.915Z,95331.00
2023-04-09T03:45:28.924Z,95331.00
2023-04-09T03:46:29.015Z,95333.00
2023-04-09T03:47:28.993Z,95331.00
2023-04-09T03:48:28.995Z,95331.00
2023-04-09T03:49:28.989Z,95331.00
2023-04-09T03:50:29.062Z,95331.00
2023-04-09T03:51:29.063Z,95335.00
2023-04-09T03:52:29.070Z,95331.00
2023-04-09T03:53:29.131Z,95333.00
2023-04-09T03:54:29.131Z,95333.00
2023-04-09T03:55:29.138Z,95333.00
2023-04-09T03:56:29.145Z,95335.00
2023-04-09T03:57:29.206Z,95333.00
2023-04-09T03:58:29.205Z,95333.00
2023-04-09T03:59:29.271Z,95335.00
2023-04-09T04:00:29.310Z,95335.00
2023-04-09T04:01:29.295Z,95337.00
2023-04-09T04:02:29.347Z,95337.00
2023-04-09T04:03:29.754Z,95337.00
2023-04-09T04:04:29.480Z,95337.00
2023-04-09T04:05:29.382Z,95337.00
2023-04-09T04:06:29.420Z,95337.00
2023-04-09T04:07:29.431Z,95339.00
2023-04-09T04:08:29.438Z,95341.00
2023-04-09T04:09:29.483Z,95343.00
2023-04-09T04:10:29.487Z,95341.00
2023-04-09T04:11:29.507Z,95345.00
2023-04-09T04:12:29.567Z,95345.00
2023-04-09T04:13:29.615Z,95345.00
2023-04-09T04:14:29.623Z,95345.00
2023-04-09T04:15:29.645Z,95345.00
2023-04-09T04:16:29.679Z,95347.00
2023-04-09T04:17:29.664Z,95347.00
2023-04-09T04:18:29.718Z,95347.00
2023-04-09T04:19:29.714Z,95349.00
2023-04-09T04:20:29.721Z,95349.00
2023-04-09T04:21:29.772Z,95349.00
2023-04-09T04:22:29.781Z,95347.00
2023-04-09T04:23:29.778Z,95349.00
2023-04-09T04:24:29.789Z,95349.00
2023-04-09T04:25:29.797Z,95351.00
2023-04-09T04:26:29.801Z,95351.00
2023-04-09T04:27:29.875Z,95349.00
2023-04-09T04:28:29.876Z,95351.00
2023-04-09T04:29:29.928Z,95351.00
2023-04-09T04:30:29.928Z,95353.00
2023-04-09T04:31:29.977Z,95351.00
2023-04-09T04:32:29.956Z,95353.00
2023-04-09T04:33:29.949Z,95353.00
2023-04-09T04:34:30.025Z,95353.00
2023-04-09T04:35:30.063Z,95353.00
2023-04-09T04:36:30.035Z,95351.00
2023-04-09T04:37:30.042Z,95355.00
2023-04-09T04:38:30.097Z,95355.00
2023-04-09T04:39:30.108Z,95359.00
2023-04-09T04:40:30.115Z,95357.00
2023-04-09T04:41:30.157Z,95355.00
2023-04-09T04:42:30.115Z,95357.00
2023-04-09T04:43:30.248Z,95361.00
2023-04-09T04:44:30.191Z,95359.00
2023-04-09T04:45:30.225Z,95363.00
2023-04-09T04:46:30.271Z,95361.00
2023-04-09T04:47:30.278Z,95361.00
2023-04-09T04:48:30.257Z,95361.00
2023-04-09T04:49:30.284Z,95361.00
2023-04-09T04:50:30.377Z,95363.00
2023-04-09T04:51:30.348Z,95361.00
2023-04-09T04:52:30.350Z,95363.00
2023-04-09T04:53:30.355Z,95363.00
2023-04-09T04:54:30.409Z,95365.00
2023-04-09T04:55:30.417Z,95365.00
2023-04-09T04:56:30.461Z,95367.00
2023-04-09T04:57:30.425Z,95367.00
2023-04-09T04:58:30.501Z,95368.00
2023-04-09T04:59:30.496Z,95368.00
2023-04-09T05:00:30.500Z,95370.00
2023-04-09T05:01:30.629Z,95370.00
2023-04-09T05:02:30.572Z,95370.00
2023-04-09T05:03:30.617Z,95370.00
2023-04-09T05:04:30.579Z,95373.00
2023-04-09T05:05:30.643Z,95373.00
2023-04-09T05:06:30.645Z,95375.00
2023-04-09T05:07:30.659Z,95376.00
2023-04-09T05:08:30.670Z,95376.00
2023-04-09T05:09:30.720Z,95378.00
2023-04-09T05:10:30.712Z,95378.00
2023-04-09T05:11:30.723Z,95378.00
2023-04-09T05:12:30.795Z,95380.00
2023-04-09T05:13:30.812Z,95382.00
2023-04-09T05:14:30.796Z,95380.00
2023-04-09T05:15:30.819Z,95384.00
2023-04-09T05:16:30.891Z,95382.00
2023-04-09T05:17:30.878Z,95384.00
2023-04-09T05:18:30.868Z,95384.00
2023-04-09T05:19:30.943Z,95388.00
2023-04-09T05:20:30.943Z,95386.00
2023-04-09T05:21:30.968Z,95388.00
2023-04-09T05:22:30.957Z,95390.00
2023-04-09T05:23:30.971Z,95392.00
2023-04-09T05:24:31.022Z,95388.00
2023-04-09T05:25:31.082Z,95390.00
2023-04-09T05:26:31.038Z,95388.00
2023-04-09T05:27:31.097Z,95386.00
2023-04-09T05:28:31.139Z,95388.00
2023-04-09T05:29:31.107Z,95388.00
2023-04-09T05:30:31.146Z,95386.00
2023-04-09T05:31:31.121Z,95386.00
2023-04-09T05:32:31.207Z,95388.00
2023-04-09T05:33:31.178Z,95386.00
2023-04-09T05:34:31.189Z,95386.00
2023-04-09T05:35:31.289Z,95388.00
2023-04-09T05:36:31.272Z,95386.00
2023-04-09T05:37:31.261Z,95386.00
2023-04-09T05:38:31.287Z,95390.00
2023-04-09T05:39:31.333Z,95386.00
2023-04-09T05:40:31.333Z,95388.00
2023-04-09T05:41:31.341Z,95388.00
2023-04-09T05:42:31.412Z,95392.00
2023-04-09T05:43:31.429Z,95390.00
2023-04-09T05:44:31.426Z,95390.00
2023-04-09T05:45:31.421Z,95392.00
2023-04-09T05:46:31.606Z,95390.00
2023-04-09T05:47:31.501Z,95390.00
2023-04-09T05:48:31.489Z,95388.00
2023-04-09T05:49:31.530Z,95390.00
2023-04-09T05:50:34.412Z,95392.00
2023-04-09T05:51:32.538Z,95394.00
2023-04-09T05:52:31.523Z,95396.00
2023-04-09T05:53:31.518Z,95394.00
2023-04-09T05:54:31.496Z,95398.00
2023-04-09T05:55:31.507Z,95398.00
2023-04-09T05:56:31.549Z,95398.00
2023-04-09T05:57:31.508Z,95396.00
2023-04-09T05:58:31.451Z,95398.00
2023-04-09T05:59:31.477Z,95398.00
2023-04-09T06:00:31.472Z,95398.00
2023-04-09T06:01:31.571Z,95400.00
2023-04-09T06:02:31.494Z,95398.00
2023-04-09T06:03:31.603Z,95400.00
2023-04-09T06:04:31.474Z,95402.00
2023-04-09T06:05:31.467Z,95400.00
2023-04-09T06:06:31.480Z,95402.00
2023-04-09T06:07:31.415Z,95402.00
2023-04-09T06:08:31.420Z,95402.00
2023-04-09T06:09:31.430Z,95402.00
2023-04-09T06:10:31.449Z,95404.00
2023-04-09T06:11:31.451Z,95402.00
2023-04-09T06:12:31.519Z,95402.00
2023-04-09T06:13:31.519Z,95402.00
2023-04-09T06:14:31.526Z,95404.00
2023-04-09T06:15:31.591Z,95404.00
2023-04-09T06:16:31.575Z,95402.00
2023-04-09T06:17:31.611Z,95404.00
2023-04-09T06:18:31.603Z,95406.00
2023-04-09T06:19:31.651Z,95404.00
2023-04-09T06:20:31.690Z,95406.00
2023-04-09T06:21:31.683Z,95408.00
2023-04-09T06:22:31.680Z,95408.00
2023-04-09T06:23:31.754Z,95408.00
2023-04-09T06:24:31.747Z,95408.00
2023-04-09T06:25:31.739Z,95408.00
2023-04-09T06:26:31.830Z,95408.00
2023-04-09T06:27:31.816Z,95410.00
2023-04-09T06:28:31.827Z,95410.00
2023-04-09T06:29:31.839Z,95410.00
2023-04-09T06:30:31.983Z,95410.00
2023-04-09T06:31:31.975Z,95410.00
2023-04-09T06:32:35.513Z,95410.00
2023-04-09T06:33:32.882Z,95412.00
2023-04-09T06:34:31.899Z,95412.00
2023-04-09T06:35:31.947Z,95412.00
2023-04-09T06:36:31.869Z,95412.00
2023-04-09T06:37:31.876Z,95410.00
2023-04-09T06:38:31.880Z,95412.00
2023-04-09T06:39:31.831Z,95414.00
2023-04-09T06:40:31.846Z,95414.00
2023-04-09T06:41:31.859Z,95412.00
2023-04-09T06:42:31.807Z,95412.00
2023-04-09T06:43:31.832Z,95414.00
2023-04-09T06:44:31.830Z,95412.00
2023-04-09T06:45:31.771Z,95421.00
2023-04-09T06:46:31.801Z,95421.00
2023-04-09T06:47:31.830Z,95423.00
2023-04-09T06:48:31.786Z,95423.00
2023-04-09T06:49:31.805Z,95425.00
2023-04-09T06:50:31.764Z,95427.00
2023-04-09T06:51:31.735Z,95427.00
2023-04-09T06:52:31.785Z,95429.00
2023-04-09T06:53:31.801Z,95427.00
2023-04-09T06:54:31.838Z,95427.00
2023-04-09T06:55:31.839Z,95427.00
2023-04-09T06:56:31.852Z,95427.00
2023-04-09T06:57:31.936Z,95429.00
2023-04-09T06:58:31.890Z,95429.00
2023-04-09T06:59:31.891Z,95429.00
2023-04-09T07:00:31.968Z,95429.00
2023-04-09T07:01:32.040Z,95431.00
2023-04-09T07:02:32.220Z,95431.00
2023-04-09T07:03:32.187Z,95433.00
2023-04-09T07:04:32.083Z,95435.00
2023-04-09T07:05:32.076Z,95437.00
2023-04-09T07:06:32.076Z,95437.00
2023-04-09T07:07:32.086Z,95439.00
2023-04-09T07:08:32.148Z,95437.00
2023-04-09T07:09:32.158Z,95435.00
2023-04-09T07:10:32.222Z,95439.00
2023-04-09T07:11:32.158Z,95441.00
2023-04-09T07:12:32.235Z,95439.00
2023-04-09T07:13:32.242Z,95437.00
2023-04-09T07:14:32.246Z,95439.00
2023-04-09T07:15:32.242Z,95439.00
2023-04-09T07:16:32.353Z,95443.00
2023-04-09T07:17:32.294Z,95441.00
2023-04-09T07:18:32.306Z,95441.00
2023-04-09T07:19:32.369Z,95441.00
2023-04-09T07:20:32.378Z,95441.00
2023-04-09T07:21:32.399Z,95441.00
2023-04-09T07:22:32.423Z,95441.00
2023-04-09T07:23:32.440Z,95439.00
2023-04-09T07:24:32.460Z,95441.00
2023-04-09T07:25:32.462Z,95439.00
2023-04-09T07:26:32.526Z,95443.00
2023-04-09T07:27:32.542Z,95445.00
2023-04-09T07:28:32.555Z,95443.00
2023-04-09T07:29:32.544Z,95443.00
2023-04-09T07:30:32.591Z,95443.00
2023-04-09T07:31:35.294Z,95443.00
2023-04-09T07:32:32.670Z,95443.00
2023-04-09T07:33:32.572Z,95447.00
2023-04-09T07:34:32.580Z,95447.00
2023-04-09T07:35:32.589Z,95447.00
2023-04-09T07:36:32.655Z,95447.00
2023-04-09T07:37:32.531Z,95447.00
2023-04-09T07:38:32.540Z,95445.00
2023-04-09T07:39:32.555Z,95447.00
2023-04-09T07:40:32.518Z,95447.00
2023-04-09T07:41:32.525Z,95447.00
2023-04-09T07:42:32.535Z,95445.00
2023-04-09T07:43:32.541Z,95449.00
2023-04-09T07:44:32.473Z,95447.00
2023-04-09T07:45:32.480Z,95447.00
2023-04-09T07:46:32.525Z,95449.00
2023-04-09T07:47:32.548Z,95451.00
2023-04-09T07:48:32.431Z,95451.00
2023-04-09T07:49:32.483Z,95451.00
2023-04-09T07:50:32.635Z,95455.00
2023-04-09T07:51:32.499Z,95453.00
2023-04-09T07:52:32.431Z,95459.00
2023-04-09T07:53:32.439Z,95453.00
2023-04-09T07:54:32.464Z,95453.00
2023-04-09T07:55:32.453Z,95453.00
2023-04-09T07:56:32.425Z,95453.00
2023-04-09T07:57:32.461Z,95453.00
2023-04-09T07:58:32.434Z,95455.00
2023-04-09T07:59:32.386Z,95453.00
2023-04-09T08:00:32.389Z,95457.00
2023-04-09T08:01:32.389Z,95457.00
2023-04-09T08:02:32.514Z,95459.00
2023-04-09T08:03:32.546Z,95457.00
2023-04-09T08:04:32.519Z,95459.00
2023-04-09T08:05:32.389Z,95457.00
2023-04-09T08:06:32.333Z,95459.00
2023-04-09T08:07:32.339Z,95459.00
2023-04-09T08:08:32.347Z,95463.00
2023-04-09T08:09:32.365Z,95461.00
2023-04-09T08:10:32.280Z,95463.00
2023-04-09T08:11:32.318Z,95463.00
2023-04-09T08:12:32.329Z,95468.00
2023-04-09T08:13:32.294Z,95467.00
2023-04-09T08:14:32.291Z,95468.00
2023-04-09T08:15:32.284Z,95468.00
2023-04-09T08:16:32.365Z,95467.00
2023-04-09T08:17:32.339Z,95468.00
2023-04-09T08:18:32.268Z,95468.00
2023-04-09T08:19:32.241Z,95468.00
2023-04-09T08:20:32.285Z,95468.00
2023-04-09T08:21:32.230Z,95470.00
2023-04-09T08:22:32.222Z,95470.00
2023-04-09T08:23:32.255Z,95468.00
2023-04-09T08:24:32.254Z,95468.00
2023-04-09T08:25:32.211Z,95467.00
2023-04-09T08:26:32.225Z,95467.00
2023-04-09T08:27:32.264Z,95467.00
2023-04-09T08:28:32.151Z,95465.00
2023-04-09T08:29:32.214Z,95468.00
2023-04-09T08:30:32.194Z,95467.00
2023-04-09T08:31:32.208Z,95468.00
2023-04-09T08:32:32.197Z,95468.00
2023-04-09T08:33:32.140Z,95468.00
2023-04-09T08:34:32.153Z,95465.00
2023-04-09T08:35:32.117Z,95467.00
2023-04-09T08:36:32.185Z,95467.00
2023-04-09T08:37:32.144Z,95463.00
2023-04-09T08:38:32.129Z,95459.00
2023-04-09T08:39:32.117Z,95461.00
2023-04-09T08:40:32.123Z,95459.00
2023-04-09T08:41:32.123Z,95457.00
2023-04-09T08:42:32.111Z,95455.00
2023-04-09T08:43:52.541Z,95457.00
2023-04-09T08:44:33.109Z,95453.00
2023-04-09T08:45:32.138Z,95453.00
2023-04-09T08:46:32.048Z,95455.00
2023-04-09T08:47:32.180Z,95457.00
2023-04-09T08:48:32.149Z,95457.00
2023-04-09T08:49:32.071Z,95459.00
2023-04-09T08:50:32.036Z,95459.00
2023-04-09T08:51:32.041Z,95461.00
2023-04-09T08:52:32.023Z,95461.00
2023-04-09T08:53:32.090Z,95461.00
2023-04-09T08:54:32.079Z,95465.00
2023-04-09T08:55:31.959Z,95467.00
2023-04-09T08:56:32.034Z,95467.00
2023-04-09T08:57:32.027Z,95468.00
2023-04-09T08:58:31.958Z,95463.00
2023-04-09T08:59:31.981Z,95465.00
2023-04-09T09:00:31.978Z,95465.00
2023-04-09T09:01:32.085Z,95463.00
2023-04-09T09:02:32.017Z,95461.00
2023-04-09T09:03:32.014Z,95459.00
2023-04-09T09:04:31.987Z,95459.00
2023-04-09T09:05:31.920Z,95457.00
2023-04-09T09:06:31.945Z,95457.00
2023-04-09T09:07:31.928Z,95457.00
2023-04-09T09:08:31.927Z,95457.00
2023-04-09T09:09:31.943Z,95455.00
2023-04-09T09:10:31.945Z,95459.00
2023-04-09T09:11:31.965Z,95459.00
2023-04-09T09:12:31.978Z,95457.00
2023-04-09T09:13:31.961Z,95459.00
2023-04-09T09:14:31.971Z,95457.00
2023-04-09T09:15:32.038Z,95451.00
2023-04-09T09:16:32.048Z,95453.00
2023-04-09T09:17:32.110Z,95455.00
2023-04-09T09:18:32.064Z,95451.00
2023-04-09T09:19:32.066Z,95449.00
2023-04-09T09:20:31.996Z,95453.00
2023-04-09T09:21:32.017Z,95449.00
2023-04-09T09:22:32.078Z,95447.00
2023-04-09T09:23:32.032Z,95445.00
2023-04-09T09:24:32.038Z,95443.00
2023-04-09T09:25:32.037Z,95441.00
2023-04-09T09:26:32.084Z,95439.00
2023-04-09T09:27:32.122Z,95437.00
2023-04-09T09:28:32.165Z,95439.00
2023-04-09T09:29:32.128Z,95435.00
2023-04-09T09:30:32.116Z,95437.00
2023-04-09T09:31:32.243Z,95435.00
2023-04-09T09:32:32.117Z,95433.00
2023-04-09T09:33:32.095Z,95431.00
2023-04-09T09:34:32.109Z,95427.00
2023-04-09T09:35:32.129Z,95433.00
2023-04-09T09:36:32.140Z,95429.00
2023-04-09T09:37:32.143Z,95427.00
2023-04-09T09:38:32.130Z,95429.00
2023-04-09T09:39:32.097Z,95425.00
2023-04-09T09:40:32.141Z,95425.00
2023-04-09T09:41:32.130Z,95425.00
2023-04-09T09:42:32.174Z,95423.00
2023-04-09T09:43:32.139Z,95427.00
2023-04-09T09:44:32.167Z,95425.00
2023-04-09T09:45:32.498Z,95425.00
2023-04-09T09:46:32.161Z,95421.00
2023-04-09T09:47:32.217Z,95412.00
2023-04-09T09:48:32.179Z,95414.00
2023-04-09T09:49:32.133Z,95412.00
2023-04-09T09:50:32.184Z,95414.00
2023-04-09T09:51:32.159Z,95412.00
2023-04-09T09:52:32.129Z,95412.00
2023-04-09T09:53:32.147Z,95412.00
2023-04-09T09:54:32.109Z,95412.00
2023-04-09T09:55:32.102Z,95412.00
2023-04-09T09:56:32.194Z,95410.00
2023-04-09T09:57:32.200Z,95406.00
2023-04-09T09:58:32.151Z,95406.00
2023-04-09T09:59:32.216Z,95404.00
2023-04-09T10:00:32.103Z,95404.00
2023-04-09T10:01:32.255Z,95404.00
2023-04-09T10:02:32.150Z,95402.00
2023-04-09T10:03:32.205Z,95402.00
2023-04-09T10:04:32.226Z,95400.00
2023-04-09T10:05:32.128Z,95396.00
2023-04-09T10:06:32.132Z,95396.00
2023-04-09T10:07:32.161Z,95394.00
2023-04-09T10:08:32.127Z,95394.00
2023-04-09T10:09:32.141Z,95394.00
2023-04-09T10:10:32.135Z,95394.00
2023-04-09T10:11:32.186Z,95392.00
2023-04-09T10:12:32.247Z,95388.00
2023-04-09T10:13:32.232Z,95392.00
2023-04-09T10:14:32.195Z,95386.00
2023-04-09T10:15:32.366Z,95384.00
2023-04-09T10:16:32.286Z,95388.00
2023-04-09T10:17:32.409Z,95386.00
2023-04-09T10:18:32.274Z,95382.00
2023-04-09T10:19:32.267Z,95380.00
2023-04-09T10:20:32.282Z,95378.00
2023-04-09T10:21:32.412Z,95376.00
2023-04-09T10:22:32.297Z,95375.00
2023-04-09T10:23:32.333Z,95376.00
2023-04-09T10:24:32.327Z,95378.00
2023-04-09T10:25:32.330Z,95376.00
2023-04-09T10:26:32.339Z,95380.00
2023-04-09T10:27:32.388Z,95380.00
2023-04-09T10:28:32.392Z,95378.00
2023-04-09T10:29:32.567Z,95375.00
2023-04-09T10:30:32.454Z,95380.00
2023-04-09T10:31:32.518Z,95380.00
2023-04-09T10:32:32.685Z,95376.00
2023-04-09T10:33:32.630Z,95375.00
2023-04-09T10:34:32.644Z,95370.00
2023-04-09T10:35:32.694Z,95370.00
2023-04-09T10:36:32.717Z,95368.00
2023-04-09T10:37:32.724Z,95367.00
2023-04-09T10:38:32.759Z,95367.00
2023-04-09T10:39:32.758Z,95367.00
2023-04-09T10:40:32.834Z,95367.00
2023-04-09T10:41:32.871Z,95368.00
2023-04-09T10:42:32.993Z,95370.00
2023-04-09T10:43:32.855Z,95368.00
2023-04-09T10:44:32.873Z,95368.00
2023-04-09T10:45:32.920Z,95368.00
2023-04-09T10:46:32.941Z,95367.00
2023-04-09T10:47:33.100Z,95368.00
2023-04-09T10:48:33.033Z,95367.00
2023-04-09T10:49:33.023Z,95367.00
2023-04-09T10:50:33.095Z,95367.00
2023-04-09T10:51:33.128Z,95367.00
2023-04-09T10:52:33.265Z,95365.00
2023-04-09T10:53:33.281Z,95363.00
2023-04-09T10:54:33.373Z,95363.00
2023-04-09T10:55:33.352Z,95359.00
2023-04-09T10:56:33.394Z,95363.00
2023-04-09T10:57:33.452Z,95361.00
2023-04-09T10:58:33.519Z,95363.00
2023-04-09T10:59:33.515Z,95357.00
2023-04-09T11:00:33.594Z,95365.00
2023-04-09T11:01:33.691Z,95361.00
2023-04-09T11:02:33.866Z,95361.00
2023-04-09T11:03:33.870Z,95357.00
2023-04-09T11:04:33.869Z,95353.00
2023-04-09T11:05:33.884Z,95355.00
2023-04-09T11:06:33.943Z,95355.00
2023-04-09T11:07:33.988Z,95353.00
2023-04-09T11:08:34.155Z,95353.00
2023-04-09T11:09:34.058Z,95347.00
2023-04-09T11:10:34.116Z,95349.00
2023-04-09T11:11:34.179Z,95345.00
2023-04-09T11:12:34.224Z,95345.00
2023-04-09T11:13:34.617Z,95345.00
2023-04-09T11:14:34.410Z,95349.00
2023-04-09T11:15:34.421Z,95347.00
2023-04-09T11:16:34.422Z,95345.00
2023-04-09T11:17:34.511Z,95349.00
2023-04-09T11:18:34.574Z,95351.00
2023-04-09T11:19:34.557Z,95349.00
2023-04-09T11:20:34.584Z,95347.00
2023-04-09T11:21:35.829Z,95347.00
2023-04-09T11:22:34.677Z,95345.00
2023-04-09T11:23:34.735Z,95343.00
2023-04-09T11:24:34.782Z,95337.00
2023-04-09T11:25:34.769Z,95341.00
2023-04-09T11:26:34.832Z,95337.00
2023-04-09T11:27:34.896Z,95339.00
2023-04-09T11:28:34.906Z,95341.00
2023-04-09T11:29:34.960Z,95343.00
2023-04-09T11:30:34.972Z,95345.00
2023-04-09T11:31:35.079Z,95343.00
2023-04-09T11:32:35.117Z,95341.00
2023-04-09T11:33:35.149Z,95339.00
2023-04-09T11:34:35.131Z,95337.00
2023-04-09T11:35:35.258Z,95339.00
2023-04-09T11:36:35.273Z,95339.00
2023-04-09T11:37:35.335Z,95335.00
2023-04-09T11:38:35.389Z,95335.00
2023-04-09T11:39:35.431Z,95335.00
2023-04-09T11:40:35.509Z,95333.00
2023-04-09T11:41:35.604Z,95335.00
2023-04-09T11:42:35.626Z,95333.00
2023-04-09T11:43:35.725Z,95337.00
2023-04-09T11:44:35.775Z,95339.00